Time;durP1;ratioP1;P1;durP2;ratioP2;P2;SDS_P1;SDS_P2;PMS_P1;PMS_P2;Temp;Humidity;BMP_temperature;BMP_pressure;BME280_temperature;BME280_humidity;BME280_pressure;Samples;Min_cycle;Max_cycle;Signal;HPM_P1;HPM_P2
2024/01/07 00:00:01;;;;;;;39.90;20.08;;;1.60;99.90;;;;;;5120951;28;20020;-94
2024/01/07 00:02:26;;;;;;;40.88;20.50;;;1.70;99.90;;;;;;5106299;28;20379;-93
2024/01/07 00:04:52;;;;;;;44.35;22.38;;;1.60;99.90;;;;;;5106624;28;20030;-93
2024/01/07 00:07:18;;;;;;;39.90;20.42;;;1.60;99.90;;;;;;5109142;28;20495;-93
2024/01/07 00:09:43;;;;;;;41.60;21.30;;;1.70;99.90;;;;;;5107503;28;20030;-93
2024/01/07 00:12:09;;;;;;;42.20;20.27;;;1.70;99.90;;;;;;5102857;28;20061;-93
2024/01/07 00:14:35;;;;;;;39.03;21.10;;;1.70;99.90;;;;;;5108308;28;20388;-93
2024/01/07 00:17:00;;;;;;;42.78;21.77;;;1.70;99.90;;;;;;5105343;28;20035;-94
2024/01/07 00:19:26;;;;;;;44.92;22.38;;;1.70;99.90;;;;;;5096038;28;20020;-93
2024/01/07 00:21:51;;;;;;;42.08;21.30;;;1.70;99.90;;;;;;5105892;28;20030;-92
2024/01/07 00:24:17;;;;;;;41.33;20.92;;;1.70;99.90;;;;;;5103843;28;20020;-93
2024/01/07 00:26:42;;;;;;;46.17;22.35;;;1.70;99.90;;;;;;5103561;28;20028;-93
2024/01/07 00:29:08;;;;;;;47.33;23.95;;;1.70;99.90;;;;;;5107999;28;20023;-93
2024/01/07 00:31:34;;;;;;;47.65;24.27;;;1.70;99.90;;;;;;5107801;28;20117;-94
2024/01/07 00:33:59;;;;;;;49.92;23.23;;;1.60;99.90;;;;;;5102432;28;20027;-93
2024/01/07 00:36:25;;;;;;;49.03;24.15;;;1.70;99.90;;;;;;5095145;28;20367;-94
2024/01/07 00:38:50;;;;;;;43.45;22.65;;;1.60;99.90;;;;;;5096834;28;20472;-93
2024/01/07 00:41:16;;;;;;;43.28;22.92;;;1.60;99.90;;;;;;5103450;28;20046;-92
2024/01/07 00:43:42;;;;;;;47.55;23.38;;;1.50;99.90;;;;;;5102693;28;20027;-93
2024/01/07 00:46:07;;;;;;;46.47;23.05;;;1.50;99.90;;;;;;5105119;28;20028;-94
2024/01/07 00:48:33;;;;;;;47.10;23.38;;;1.50;99.90;;;;;;5099135;28;20031;-93
2024/01/07 00:50:59;;;;;;;46.47;21.08;;;1.50;99.90;;;;;;5099301;28;20497;-93
2024/01/07 00:53:24;;;;;;;44.40;21.80;;;1.60;99.90;;;;;;5104964;28;20549;-93
2024/01/07 00:55:50;;;;;;;46.33;23.95;;;1.60;99.90;;;;;;5105474;28;20027;-94
2024/01/07 00:58:15;;;;;;;44.63;22.40;;;1.60;99.90;;;;;;5117396;28;20028;-93
2024/01/07 01:00:41;;;;;;;48.50;23.23;;;1.60;99.90;;;;;;5107704;28;20019;-94
2024/01/07 01:03:06;;;;;;;48.83;23.80;;;1.60;99.90;;;;;;5106450;28;20023;-94
2024/01/07 01:05:33;;;;;;;50.85;23.15;;;1.60;99.90;;;;;;5095993;28;20042;-94
2024/01/07 01:07:59;;;;;;;45.40;23.52;;;1.60;99.90;;;;;;5095878;28;20513;-95
2024/01/07 01:10:25;;;;;;;47.78;21.98;;;1.60;99.90;;;;;;5105552;28;20016;-93
2024/01/07 01:12:53;;;;;;;49.30;23.30;;;1.60;99.90;;;;;;5107768;28;20034;-95
2024/01/07 01:15:19;;;;;;;47.17;21.92;;;1.50;99.90;;;;;;5102964;28;20043;-95
2024/01/07 01:17:45;;;;;;;54.47;25.38;;;1.60;99.90;;;;;;5105394;28;20023;-94
2024/01/07 01:20:11;;;;;;;55.05;25.75;;;1.60;99.90;;;;;;5106591;28;20430;-94
2024/01/07 01:22:37;;;;;;;57.20;24.85;;;1.60;99.90;;;;;;5101684;28;20028;-93
2024/01/07 01:25:03;;;;;;;55.17;26.20;;;1.50;99.90;;;;;;5090138;28;20076;-93
2024/01/07 01:27:30;;;;;;;55.42;25.80;;;1.60;99.90;;;;;;5095695;28;20027;-94
2024/01/07 01:29:55;;;;;;;60.20;28.85;;;1.60;99.90;;;;;;5105056;28;20103;-94
2024/01/07 01:32:21;;;;;;;60.88;27.48;;;1.60;99.90;;;;;;5102791;28;20062;-94
2024/01/07 01:34:46;;;;;;;60.15;27.17;;;1.60;99.90;;;;;;5086627;28;20028;-94
2024/01/07 01:37:12;;;;;;;62.85;27.95;;;1.60;99.90;;;;;;5089618;28;20400;-93
2024/01/07 01:39:41;;;;;;;65.80;28.65;;;1.50;99.90;;;;;;5101937;28;20109;-94
2024/01/07 01:42:07;;;;;;;60.05;24.42;;;1.50;99.90;;;;;;5088256;28;20039;-94
2024/01/07 01:44:34;;;;;;;65.85;28.75;;;1.50;99.90;;;;;;5084653;28;20039;-94
2024/01/07 01:47:00;;;;;;;60.20;27.90;;;1.50;99.90;;;;;;5065823;28;20062;-94
2024/01/07 01:49:26;;;;;;;66.07;27.65;;;1.50;99.90;;;;;;5099643;28;20029;-94
2024/01/07 01:51:52;;;;;;;65.93;29.02;;;1.60;99.90;;;;;;5092794;28;20035;-94
2024/01/07 01:54:18;;;;;;;61.55;28.48;;;1.60;99.90;;;;;;5070446;28;20033;-94
2024/01/07 01:56:45;;;;;;;62.20;27.95;;;1.60;99.90;;;;;;5070081;28;20099;-94
2024/01/07 01:59:11;;;;;;;60.25;27.00;;;1.60;99.90;;;;;;5076867;28;20044;-94
2024/01/07 02:01:38;;;;;;;62.35;28.67;;;1.60;99.90;;;;;;5086464;28;20024;-94
2024/01/07 02:04:04;;;;;;;56.88;27.67;;;1.60;99.90;;;;;;5090237;28;20013;-94
2024/01/07 02:06:30;;;;;;;61.35;29.25;;;1.60;99.90;;;;;;5099511;28;20035;-93
2024/01/07 02:08:56;;;;;;;57.30;27.73;;;1.60;99.90;;;;;;5071610;28;20040;-95
2024/01/07 02:11:22;;;;;;;55.35;25.80;;;1.70;99.90;;;;;;5081082;28;20032;-95
2024/01/07 02:13:48;;;;;;;61.67;29.10;;;1.70;99.90;;;;;;5075840;28;20035;-94
2024/01/07 02:16:14;;;;;;;52.80;24.95;;;1.70;99.90;;;;;;5079805;28;20488;-92
2024/01/07 02:18:45;;;;;;;48.72;24.92;;;1.70;99.90;;;;;;5074847;28;20126;-94
2024/01/07 02:21:12;;;;;;;51.15;25.25;;;1.70;99.90;;;;;;5083521;28;20060;-94
2024/01/07 02:23:38;;;;;;;52.15;25.17;;;1.70;99.90;;;;;;5080723;28;20031;-94
2024/01/07 02:26:04;;;;;;;53.00;25.45;;;1.70;99.90;;;;;;5082041;28;20028;-94
2024/01/07 02:28:30;;;;;;;55.13;26.90;;;1.60;99.90;;;;;;5084261;28;20472;-94
2024/01/07 02:30:56;;;;;;;50.92;27.00;;;1.70;99.90;;;;;;5077817;28;20021;-95
2024/01/07 02:33:21;;;;;;;46.05;22.98;;;1.70;99.90;;;;;;5062791;28;20029;-94
2024/01/07 02:35:48;;;;;;;52.03;25.23;;;1.70;99.90;;;;;;5097981;28;20032;-94
2024/01/07 02:38:14;;;;;;;50.88;24.80;;;1.70;99.90;;;;;;5082808;28;20032;-93
2024/01/07 02:40:40;;;;;;;55.45;27.80;;;1.70;99.90;;;;;;5062592;28;20096;-93
2024/01/07 02:43:05;;;;;;;52.60;25.58;;;1.60;99.90;;;;;;5078806;28;20029;-94
2024/01/07 02:45:31;;;;;;;48.28;23.00;;;1.70;99.90;;;;;;5084662;28;20055;-94
2024/01/07 02:47:57;;;;;;;49.00;25.17;;;1.60;99.90;;;;;;5077136;28;20051;-94
2024/01/07 02:50:23;;;;;;;48.88;25.45;;;1.60;99.90;;;;;;5086360;28;20119;-94
2024/01/07 02:52:49;;;;;;;55.10;25.33;;;1.60;99.90;;;;;;5082694;28;20032;-94
2024/01/07 02:55:15;;;;;;;50.38;23.50;;;1.60;99.90;;;;;;5086185;28;20106;-94
2024/01/07 02:57:40;;;;;;;54.15;24.08;;;1.60;99.90;;;;;;5085703;28;20084;-95
2024/01/07 03:00:07;;;;;;;49.72;23.55;;;1.60;99.90;;;;;;5080089;28;20028;-94
2024/01/07 03:02:33;;;;;;;55.20;26.35;;;1.60;99.90;;;;;;5051591;28;20056;-94
2024/01/07 03:04:59;;;;;;;55.25;24.58;;;1.60;99.90;;;;;;5072600;28;20031;-93
2024/01/07 03:07:25;;;;;;;65.65;26.40;;;1.50;99.90;;;;;;5082485;28;20028;-94
2024/01/07 03:09:50;;;;;;;57.90;27.10;;;1.50;99.90;;;;;;5084765;28;20077;-93
2024/01/07 03:12:17;;;;;;;51.70;25.98;;;1.50;99.90;;;;;;5085412;28;20051;-94
2024/01/07 03:14:43;;;;;;;50.08;23.27;;;1.50;99.90;;;;;;5086331;28;20039;-93
2024/01/07 03:17:12;;;;;;;49.55;22.70;;;1.50;99.90;;;;;;5085895;28;20028;-93
2024/01/07 03:19:38;;;;;;;65.00;27.85;;;1.50;99.90;;;;;;5081188;28;20032;-94
2024/01/07 03:22:05;;;;;;;61.50;26.85;;;1.50;99.90;;;;;;5081183;28;20089;-95
2024/01/07 03:24:31;;;;;;;58.35;28.08;;;1.50;99.90;;;;;;5081373;28;20029;-95
2024/01/07 03:26:57;;;;;;;62.05;26.67;;;1.50;99.90;;;;;;5070450;28;20031;-94
2024/01/07 03:29:22;;;;;;;51.13;23.33;;;1.50;99.90;;;;;;5081698;28;20043;-93
2024/01/07 03:31:48;;;;;;;55.33;25.65;;;1.50;99.90;;;;;;5073325;28;20091;-94
2024/01/07 03:34:13;;;;;;;55.45;25.38;;;1.50;99.90;;;;;;5071221;28;20059;-94
2024/01/07 03:36:39;;;;;;;56.08;24.92;;;1.40;99.90;;;;;;5079467;28;20027;-94
2024/01/07 03:39:05;;;;;;;52.67;24.67;;;1.40;99.90;;;;;;5061963;28;20083;-94
2024/01/07 03:41:30;;;;;;;50.80;24.45;;;1.40;99.90;;;;;;5081943;28;20040;-93
2024/01/07 03:43:56;;;;;;;54.15;25.38;;;1.40;99.90;;;;;;5088777;28;20032;-95
2024/01/07 03:46:24;;;;;;;49.38;22.85;;;1.40;99.90;;;;;;5098227;28;20046;-94
2024/01/07 03:48:49;;;;;;;47.88;22.13;;;1.40;99.90;;;;;;5099657;28;20015;-94
2024/01/07 03:51:15;;;;;;;46.75;24.35;;;1.40;99.90;;;;;;5107275;27;20034;-94
2024/01/07 03:53:42;;;;;;;47.03;22.00;;;1.40;99.90;;;;;;5115545;28;20256;-93
2024/01/07 03:56:07;;;;;;;42.05;20.00;;;1.40;99.90;;;;;;5099489;28;20488;-93
2024/01/07 03:58:34;;;;;;;41.05;22.08;;;1.40;99.90;;;;;;5104534;28;20031;-93
2024/01/07 04:01:00;;;;;;;38.15;20.42;;;1.40;99.90;;;;;;5106928;28;20083;-94
2024/01/07 04:03:26;;;;;;;39.25;19.92;;;1.40;99.90;;;;;;5125251;28;20046;-95
2024/01/07 04:05:52;;;;;;;43.58;21.40;;;1.40;99.90;;;;;;5108511;28;20035;-94
2024/01/07 04:08:18;;;;;;;35.97;17.52;;;1.40;99.90;;;;;;5106644;28;20023;-94
2024/01/07 04:10:43;;;;;;;31.15;16.75;;;1.40;99.90;;;;;;5104860;28;20457;-96
2024/01/07 04:13:09;;;;;;;34.53;18.05;;;1.40;99.90;;;;;;5088344;28;20055;-95
2024/01/07 04:15:35;;;;;;;35.13;18.00;;;1.40;99.90;;;;;;5115420;27;20509;-95
2024/01/07 04:18:04;;;;;;;27.85;16.25;;;1.40;99.90;;;;;;5109759;28;20048;-94
2024/01/07 04:20:30;;;;;;;28.52;16.30;;;1.40;99.90;;;;;;5104819;28;20032;-94
2024/01/07 04:22:58;;;;;;;31.70;16.92;;;1.40;99.90;;;;;;5105562;28;20085;-95
2024/01/07 04:25:26;;;;;;;30.00;16.90;;;1.40;99.90;;;;;;5077291;28;20030;-93
2024/01/07 04:27:51;;;;;;;28.23;16.48;;;1.40;99.90;;;;;;5092677;28;20035;-94
2024/01/07 04:30:17;;;;;;;29.27;16.15;;;1.40;99.90;;;;;;5096550;28;20020;-95
2024/01/07 04:32:43;;;;;;;28.65;16.83;;;1.30;99.90;;;;;;5107968;28;20165;-95
2024/01/07 04:35:08;;;;;;;27.05;15.90;;;1.30;99.90;;;;;;5108616;28;20344;-95
2024/01/07 04:37:35;;;;;;;25.67;13.60;;;1.30;99.90;;;;;;5105036;28;20095;-95
2024/01/07 04:40:02;;;;;;;27.40;15.43;;;1.30;99.90;;;;;;5108688;28;20027;-95
2024/01/07 04:42:27;;;;;;;27.52;15.80;;;1.30;99.90;;;;;;5106858;28;20080;-95
2024/01/07 04:44:53;;;;;;;23.85;11.95;;;1.30;99.90;;;;;;5104416;28;20047;-94
2024/01/07 04:47:35;;;;;;;31.30;17.15;;;1.30;99.90;;;;;;5093048;28;20023;-95
2024/01/07 04:50:01;;;;;;;26.27;15.10;;;1.30;99.90;;;;;;5108754;28;20097;-96
2024/01/07 04:52:27;;;;;;;27.77;15.95;;;1.20;99.90;;;;;;5096135;28;20033;-95
2024/01/07 04:54:54;;;;;;;27.98;16.23;;;1.30;99.90;;;;;;5105359;28;20119;-93
2024/01/07 04:57:22;;;;;;;28.98;15.73;;;1.30;99.90;;;;;;5107568;28;20038;-94
2024/01/07 04:59:49;;;;;;;29.13;17.17;;;1.30;99.90;;;;;;5107183;28;20031;-95
2024/01/07 05:02:15;;;;;;;27.95;16.42;;;1.20;99.90;;;;;;5095889;28;20032;-96
2024/01/07 05:04:41;;;;;;;30.10;18.20;;;1.20;99.90;;;;;;5110068;28;20026;-95
2024/01/07 05:07:07;;;;;;;33.78;19.40;;;1.10;99.90;;;;;;5112445;28;20027;-96
2024/01/07 05:09:33;;;;;;;31.25;18.67;;;1.10;99.90;;;;;;5126061;28;20041;-94
2024/01/07 05:11:59;;;;;;;29.05;17.73;;;1.10;99.90;;;;;;5109192;28;20039;-96
2024/01/07 05:14:25;;;;;;;38.00;18.55;;;1.10;99.90;;;;;;5120099;28;20024;-95
2024/01/07 05:16:50;;;;;;;32.80;19.20;;;1.10;99.90;;;;;;5102351;28;20024;-96
2024/01/07 05:19:16;;;;;;;30.02;16.67;;;1.20;99.90;;;;;;5108375;28;20063;-96
2024/01/07 05:21:42;;;;;;;37.42;20.15;;;1.20;99.90;;;;;;5101092;28;20055;-95
2024/01/07 05:24:07;;;;;;;34.78;18.65;;;1.20;99.90;;;;;;5102276;28;20026;-95
2024/01/07 05:26:44;;;;;;;34.85;18.55;;;1.20;99.90;;;;;;5104550;28;20023;-93
2024/01/07 05:29:11;;;;;;;35.45;18.80;;;1.20;99.90;;;;;;5108253;28;20479;-93
2024/01/07 05:31:38;;;;;;;33.38;19.52;;;1.20;99.90;;;;;;5105250;28;20036;-94
2024/01/07 05:34:04;;;;;;;35.17;19.83;;;1.20;99.90;;;;;;5107064;28;20028;-94
2024/01/07 05:36:29;;;;;;;33.38;19.48;;;1.20;99.90;;;;;;5106312;28;20037;-94
2024/01/07 05:38:56;;;;;;;37.30;20.55;;;1.20;99.90;;;;;;5104819;28;20020;-93
2024/01/07 05:41:21;;;;;;;37.78;21.67;;;1.20;99.90;;;;;;5103992;28;20080;-95
2024/01/07 05:43:48;;;;;;;32.60;19.48;;;1.20;99.90;;;;;;5106168;28;20083;-92
2024/01/07 05:46:14;;;;;;;33.85;19.90;;;1.20;99.90;;;;;;5097157;28;20028;-93
2024/01/07 05:48:44;;;;;;;34.22;20.75;;;1.20;99.90;;;;;;5107012;28;20110;-94
2024/01/07 05:51:10;;;;;;;29.40;17.30;;;1.20;99.90;;;;;;5098195;28;20031;-92
2024/01/07 05:53:35;;;;;;;30.58;17.67;;;1.20;99.90;;;;;;5094003;28;20177;-95
2024/01/07 05:56:02;;;;;;;30.77;18.65;;;1.20;99.90;;;;;;5099363;28;20024;-95
2024/01/07 05:58:29;;;;;;;30.05;17.70;;;1.10;99.90;;;;;;5108392;28;20028;-94
2024/01/07 06:00:54;;;;;;;33.00;19.83;;;1.20;99.90;;;;;;5107166;28;20024;-94
2024/01/07 06:03:20;;;;;;;32.05;18.38;;;1.10;99.90;;;;;;5103073;28;20034;-96
2024/01/07 06:05:46;;;;;;;31.27;19.17;;;1.20;99.90;;;;;;5110321;28;20043;-93
2024/01/07 06:08:13;;;;;;;31.38;19.80;;;1.20;99.90;;;;;;5122783;28;20044;-95
2024/01/07 06:10:39;;;;;;;29.70;17.70;;;1.10;99.90;;;;;;5107061;28;20023;-94
2024/01/07 06:13:06;;;;;;;30.90;17.98;;;1.10;99.90;;;;;;5115619;28;20050;-95
2024/01/07 06:15:32;;;;;;;33.17;19.17;;;1.10;99.90;;;;;;5096005;28;20043;-94
2024/01/07 06:17:58;;;;;;;34.10;20.27;;;1.10;99.90;;;;;;5110561;28;20031;-96
2024/01/07 06:20:24;;;;;;;29.73;16.55;;;1.10;99.90;;;;;;5108078;28;20066;-95
2024/01/07 06:22:51;;;;;;;26.58;16.15;;;1.10;99.90;;;;;;5093951;28;20493;-95
2024/01/07 06:25:16;;;;;;;25.92;15.70;;;1.10;99.90;;;;;;5110641;28;20012;-94
2024/01/07 06:27:42;;;;;;;28.65;17.42;;;1.10;99.90;;;;;;5101799;28;20054;-95
2024/01/07 06:30:10;;;;;;;28.92;16.60;;;1.10;99.90;;;;;;5129218;28;20031;-96
2024/01/07 06:32:39;;;;;;;25.20;15.98;;;1.10;99.90;;;;;;5107879;28;20036;-94
2024/01/07 06:35:04;;;;;;;29.73;16.77;;;1.10;99.90;;;;;;5112078;28;20022;-94
2024/01/07 06:37:32;;;;;;;30.38;17.75;;;1.10;99.90;;;;;;5093487;28;20503;-94
2024/01/07 06:39:58;;;;;;;28.85;17.80;;;1.10;99.90;;;;;;5109486;28;20023;-93
2024/01/07 06:42:24;;;;;;;24.83;16.40;;;1.10;99.90;;;;;;5087494;28;20035;-95
2024/01/07 06:44:50;;;;;;;31.45;18.55;;;1.10;99.90;;;;;;5090095;28;20074;-94
2024/01/07 06:47:16;;;;;;;27.17;17.60;;;1.10;99.90;;;;;;5094806;28;20058;-95
2024/01/07 06:49:41;;;;;;;29.38;18.48;;;1.10;99.90;;;;;;5093708;28;20486;-95
2024/01/07 06:52:07;;;;;;;27.48;15.85;;;1.10;99.90;;;;;;5089502;28;20089;-95
2024/01/07 06:54:33;;;;;;;30.75;16.73;;;1.10;99.90;;;;;;5088173;28;20016;-95
2024/01/07 06:56:59;;;;;;;26.02;15.40;;;1.10;99.90;;;;;;5097737;28;20519;-94
2024/01/07 06:59:24;;;;;;;25.45;15.80;;;1.10;99.90;;;;;;5095506;28;20073;-95
2024/01/07 07:01:50;;;;;;;24.88;15.50;;;1.10;99.90;;;;;;5083160;28;20038;-94
2024/01/07 07:04:16;;;;;;;21.83;13.48;;;1.10;99.90;;;;;;5092047;28;20023;-95
2024/01/07 07:06:41;;;;;;;24.40;13.88;;;1.10;99.90;;;;;;5102734;28;20043;-95
2024/01/07 07:09:07;;;;;;;27.75;15.18;;;1.10;99.90;;;;;;5089303;28;20059;-95
2024/01/07 07:11:33;;;;;;;21.00;14.15;;;1.00;99.90;;;;;;5104019;28;20058;-95
2024/01/07 07:13:58;;;;;;;21.95;12.77;;;1.00;99.90;;;;;;5101429;28;20028;-95
2024/01/07 07:16:25;;;;;;;21.55;12.80;;;1.00;99.90;;;;;;5105776;28;20027;-96
2024/01/07 07:18:51;;;;;;;22.48;14.68;;;1.00;99.90;;;;;;5098043;28;20020;-95
2024/01/07 07:21:16;;;;;;;28.88;14.80;;;1.10;99.90;;;;;;5101308;28;20542;-95
2024/01/07 07:23:42;;;;;;;22.00;13.10;;;1.10;99.90;;;;;;5102954;28;20111;-94
2024/01/07 07:26:08;;;;;;;23.15;14.43;;;1.10;99.90;;;;;;5098650;28;20073;-95
2024/01/07 07:28:34;;;;;;;22.23;13.68;;;1.00;99.90;;;;;;5090063;28;20032;-96
2024/01/07 07:30:59;;;;;;;22.13;13.52;;;1.00;99.90;;;;;;5097228;28;20081;-94
2024/01/07 07:33:25;;;;;;;25.48;14.52;;;1.00;99.90;;;;;;5096705;28;20024;-93
2024/01/07 07:35:51;;;;;;;22.70;14.88;;;1.00;99.90;;;;;;5087464;28;20035;-95
2024/01/07 07:38:16;;;;;;;21.85;14.32;;;1.00;99.90;;;;;;5100099;28;20019;-94
2024/01/07 07:40:42;;;;;;;25.23;14.57;;;1.00;99.90;;;;;;5089883;28;20065;-96
2024/01/07 07:43:08;;;;;;;21.77;13.40;;;1.00;99.90;;;;;;5097356;28;20032;-94
2024/01/07 07:45:34;;;;;;;24.17;14.90;;;1.00;99.90;;;;;;5087776;28;20469;-95
2024/01/07 07:48:01;;;;;;;26.83;14.98;;;1.00;99.90;;;;;;5098843;28;20058;-96
2024/01/07 07:50:27;;;;;;;24.17;13.82;;;0.90;99.90;;;;;;5103875;28;20024;-95
2024/01/07 07:52:53;;;;;;;23.60;12.95;;;0.90;99.90;;;;;;5099795;28;20044;-94
2024/01/07 07:55:19;;;;;;;21.05;13.60;;;0.90;99.90;;;;;;5097755;28;20089;-95
2024/01/07 07:57:46;;;;;;;22.85;12.80;;;0.90;99.90;;;;;;5099932;28;20383;-96
2024/01/07 08:00:15;;;;;;;23.55;13.48;;;0.90;99.90;;;;;;5105729;28;20024;-96
2024/01/07 08:02:42;;;;;;;19.08;13.00;;;0.90;99.90;;;;;;5096464;28;20017;-95
2024/01/07 08:05:08;;;;;;;19.80;12.40;;;0.90;99.90;;;;;;5108125;28;20035;-94
2024/01/07 08:07:34;;;;;;;19.83;11.30;;;0.90;99.90;;;;;;5105754;28;20024;-95
2024/01/07 08:10:00;;;;;;;16.90;11.52;;;0.90;99.90;;;;;;5108451;28;20031;-96
2024/01/07 08:12:25;;;;;;;17.27;10.90;;;0.90;99.90;;;;;;5104105;28;20046;-96
2024/01/07 08:14:51;;;;;;;16.52;9.57;;;0.90;99.90;;;;;;5101434;28;20031;-95
2024/01/07 08:17:17;;;;;;;15.13;8.27;;;0.90;99.90;;;;;;5094512;28;20492;-96
2024/01/07 08:19:43;;;;;;;15.73;10.68;;;0.90;99.90;;;;;;5101824;28;20024;-95
2024/01/07 08:22:12;;;;;;;16.58;9.07;;;0.90;99.90;;;;;;5092905;28;20545;-96
2024/01/07 08:24:37;;;;;;;13.68;9.30;;;0.90;99.90;;;;;;5102188;28;20032;-96
2024/01/07 08:27:04;;;;;;;16.15;9.57;;;0.90;99.90;;;;;;5088704;28;20040;-95
2024/01/07 08:29:31;;;;;;;17.92;11.38;;;0.90;99.90;;;;;;5105665;28;20123;-95
2024/01/07 08:31:56;;;;;;;18.55;11.88;;;0.90;99.90;;;;;;5092808;28;20032;-95
2024/01/07 08:34:22;;;;;;;19.50;12.15;;;0.90;99.90;;;;;;5100960;28;20031;-95
2024/01/07 08:36:49;;;;;;;18.30;12.15;;;0.90;99.90;;;;;;5091486;28;20126;-96
2024/01/07 08:39:15;;;;;;;20.95;12.48;;;0.90;99.90;;;;;;5092897;28;20028;-95
2024/01/07 08:41:42;;;;;;;16.27;11.10;;;0.90;99.90;;;;;;5089530;28;20028;-94
2024/01/07 08:44:10;;;;;;;15.75;9.40;;;0.90;99.90;;;;;;5084533;28;20056;-94
2024/01/07 08:46:38;;;;;;;17.70;10.82;;;0.90;99.90;;;;;;5100600;28;20036;-96
2024/01/07 08:49:04;;;;;;;20.73;10.48;;;0.90;99.90;;;;;;5107083;28;20028;-95
2024/01/07 08:51:29;;;;;;;17.60;11.35;;;0.80;99.90;;;;;;5104997;28;20035;-95
2024/01/07 08:53:58;;;;;;;9.75;6.07;;;0.90;99.90;;;;;;5103821;28;20092;-95
2024/01/07 08:56:23;;;;;;;11.00;8.20;;;0.90;99.90;;;;;;5101148;28;20031;-92
2024/01/07 08:58:49;;;;;;;10.13;7.63;;;0.80;99.90;;;;;;5106419;28;20024;-95
2024/01/07 09:01:16;;;;;;;13.23;8.45;;;0.80;99.90;;;;;;5104983;28;20031;-94
2024/01/07 09:03:42;;;;;;;11.82;8.13;;;0.80;99.90;;;;;;5096979;28;20020;-94
2024/01/07 09:06:07;;;;;;;10.65;7.47;;;0.80;99.90;;;;;;5106282;28;20035;-96
2024/01/07 09:08:35;;;;;;;11.55;8.20;;;0.80;99.90;;;;;;5104054;28;20545;-94
2024/01/07 09:11:06;;;;;;;11.45;8.82;;;0.90;99.90;;;;;;5101329;28;20059;-94
2024/01/07 09:13:33;;;;;;;11.90;8.70;;;0.90;99.90;;;;;;5101158;28;20032;-95
2024/01/07 09:15:59;;;;;;;14.95;9.18;;;0.90;99.90;;;;;;5106085;28;20028;-95
2024/01/07 09:18:26;;;;;;;14.25;9.18;;;0.90;99.90;;;;;;5072432;28;20047;-95
2024/01/07 09:20:52;;;;;;;12.30;8.15;;;0.80;99.90;;;;;;5096277;28;20486;-94
2024/01/07 09:23:17;;;;;;;11.52;6.78;;;0.80;99.90;;;;;;5102744;28;20059;-94
2024/01/07 09:25:46;;;;;;;14.90;8.73;;;0.80;99.90;;;;;;5100864;28;20112;-95
2024/01/07 09:28:16;;;;;;;13.23;8.10;;;0.70;99.90;;;;;;5097340;28;20044;-95
2024/01/07 09:30:42;;;;;;;16.15;9.05;;;0.70;99.90;;;;;;5067911;28;20035;-94
2024/01/07 09:33:08;;;;;;;12.25;8.88;;;0.70;99.90;;;;;;5097758;28;20032;-94
2024/01/07 09:35:34;;;;;;;15.95;9.77;;;0.70;99.90;;;;;;5088842;28;20068;-95
2024/01/07 09:38:00;;;;;;;15.50;9.02;;;0.70;99.90;;;;;;5084257;28;20033;-94
2024/01/07 09:40:33;;;;;;;17.42;10.18;;;0.70;99.90;;;;;;5085490;28;20476;-95
2024/01/07 09:42:59;;;;;;;13.45;8.80;;;0.80;99.90;;;;;;5106113;28;20032;-95
2024/01/07 09:45:26;;;;;;;13.63;8.38;;;0.80;99.90;;;;;;5113564;28;20040;-94
2024/01/07 09:47:51;;;;;;;14.95;9.00;;;0.80;99.90;;;;;;5100058;28;20440;-94
2024/01/07 09:50:18;;;;;;;13.95;9.38;;;0.80;99.90;;;;;;5111539;28;20019;-95
2024/01/07 09:52:46;;;;;;;15.10;9.85;;;0.70;99.90;;;;;;5114333;28;20048;-94
2024/01/07 09:55:25;;;;;;;13.82;9.20;;;0.70;99.90;;;;;;5108247;28;20085;-95
2024/01/07 09:57:51;;;;;;;15.35;9.65;;;0.80;99.90;;;;;;5125493;28;20031;-96
2024/01/07 10:00:18;;;;;;;17.58;10.25;;;0.80;99.90;;;;;;5103126;28;20069;-95
2024/01/07 10:02:44;;;;;;;11.35;6.10;;;0.80;99.90;;;;;;5098719;28;20047;-95
2024/01/07 10:05:10;;;;;;;16.98;9.10;;;0.80;99.90;;;;;;5101489;28;20028;-95
2024/01/07 10:07:37;;;;;;;12.90;7.60;;;0.80;99.90;;;;;;5086245;28;20164;-96
2024/01/07 10:10:17;;;;;;;13.00;7.45;;;0.80;99.90;;;;;;5109193;28;20028;-96
2024/01/07 10:12:47;;;;;;;13.52;8.50;;;0.80;99.90;;;;;;5072754;28;20070;-94
2024/01/07 10:15:13;;;;;;;16.05;7.88;;;0.80;99.90;;;;;;5095462;28;20028;-95
2024/01/07 10:17:42;;;;;;;14.73;8.43;;;0.90;99.90;;;;;;5077892;28;20040;-94
2024/01/07 10:20:09;;;;;;;12.80;7.80;;;0.90;99.90;;;;;;5125740;28;20027;-94
2024/01/07 10:22:39;;;;;;;13.57;8.18;;;0.90;99.90;;;;;;5104264;28;20023;-95
2024/01/07 10:25:06;;;;;;;13.52;7.50;;;0.90;99.90;;;;;;5105911;28;20027;-94
2024/01/07 10:27:37;;;;;;;15.13;8.57;;;1.00;99.90;;;;;;5124903;28;20019;-94
2024/01/07 10:30:04;;;;;;;15.35;9.63;;;1.10;99.90;;;;;;5106604;28;20038;-95
2024/01/07 10:32:29;;;;;;;14.68;8.48;;;1.10;99.90;;;;;;5099205;28;20088;-93
2024/01/07 10:35:02;;;;;;;15.18;9.48;;;1.10;99.90;;;;;;5092168;28;20024;-94
2024/01/07 10:37:32;;;;;;;;;;;1.10;99.90;;;;;;5088970;28;20020;-95
2024/01/07 10:40:04;;;;;;;16.52;8.32;;;1.00;99.90;;;;;;5105107;28;19915;-95
2024/01/07 10:42:33;;;;;;;11.25;7.13;;;1.00;99.90;;;;;;5107090;28;20032;-94
2024/01/07 10:45:00;;;;;;;15.68;8.65;;;1.00;99.90;;;;;;5074841;28;20128;-93
2024/01/07 10:47:30;;;;;;;14.20;7.60;;;1.00;99.90;;;;;;5093372;28;20062;-94
2024/01/07 10:49:58;;;;;;;11.32;7.20;;;1.00;99.90;;;;;;5125686;28;20024;-95
2024/01/07 10:52:26;;;;;;;10.40;6.60;;;1.00;99.90;;;;;;5122708;28;20024;-93
2024/01/07 10:54:53;;;;;;;10.82;6.40;;;1.00;99.90;;;;;;5103435;28;20020;-95
2024/01/07 10:57:46;;;;;;;12.07;7.07;;;1.10;99.90;;;;;;5101773;28;20032;-96
2024/01/07 11:00:19;;;;;;;11.18;6.30;;;1.20;99.90;;;;;;5091225;28;20035;-96
2024/01/07 11:03:00;;;;;;;11.48;6.63;;;1.30;99.90;;;;;;5099498;28;20024;-95
2024/01/07 11:05:58;;;;;;;10.90;5.65;;;1.30;99.90;;;;;;5110941;28;20047;-94
2024/01/07 11:08:32;;;;;;;11.90;5.25;;;1.40;99.90;;;;;;5099491;28;20043;-94
2024/01/07 11:11:21;;;;;;;7.53;4.65;;;1.40;99.90;;;;;;5085759;28;20035;-93
2024/01/07 11:13:46;;;;;;;8.27;4.80;;;1.40;99.90;;;;;;5101125;28;20391;-94
2024/01/07 11:16:12;;;;;;;10.40;5.55;;;1.30;99.90;;;;;;5089307;28;20020;-94
2024/01/07 11:18:46;;;;;;;7.50;4.50;;;1.30;99.90;;;;;;5104806;28;20024;-95
2024/01/07 11:21:24;;;;;;;10.90;5.78;;;1.40;99.90;;;;;;5099946;28;20027;-95
2024/01/07 11:23:52;;;;;;;7.97;4.18;;;1.40;99.90;;;;;;5099687;28;20154;-95
2024/01/07 11:26:17;;;;;;;8.95;4.35;;;1.50;99.90;;;;;;5095780;28;20024;-93
2024/01/07 11:28:57;;;;;;;8.52;3.95;;;1.40;99.90;;;;;;5098046;28;20023;-94
2024/01/07 11:31:41;;;;;;;5.70;4.15;;;1.40;99.90;;;;;;5085174;28;22131;-94
2024/01/07 11:34:10;;;;;;;8.05;4.53;;;1.30;99.90;;;;;;5091939;28;20031;-94
2024/01/07 11:36:36;;;;;;;4.93;3.35;;;1.30;99.90;;;;;;5093421;28;20035;-93
2024/01/07 11:39:03;;;;;;;7.38;4.25;;;1.40;99.90;;;;;;5096751;28;20099;-93
2024/01/07 11:41:33;;;;;;;8.20;4.53;;;1.40;99.90;;;;;;5093527;28;20114;-95
2024/01/07 11:43:59;;;;;;;6.15;3.97;;;1.40;99.90;;;;;;5097728;28;20123;-93
2024/01/07 11:46:29;;;;;;;8.88;4.80;;;1.40;99.90;;;;;;5095490;28;20020;-95
2024/01/07 11:48:58;;;;;;;6.43;4.45;;;1.40;99.90;;;;;;5092454;28;20070;-94
2024/01/07 11:51:31;;;;;;;7.47;4.68;;;1.30;99.90;;;;;;5112824;27;20020;-93
2024/01/07 11:53:59;;;;;;;6.07;4.03;;;1.30;99.90;;;;;;5094788;28;20026;-95
2024/01/07 11:56:25;;;;;;;6.60;3.60;;;1.40;99.90;;;;;;5100820;28;20022;-95
2024/01/07 11:58:51;;;;;;;5.75;3.78;;;1.50;99.90;;;;;;5099459;28;20016;-95
2024/01/07 12:01:18;;;;;;;4.28;2.67;;;1.40;99.90;;;;;;5099309;28;20027;-95
2024/01/07 12:03:44;;;;;;;9.23;3.42;;;1.40;99.90;;;;;;5100027;28;20048;-94
2024/01/07 12:06:13;;;;;;;4.72;2.78;;;1.30;99.90;;;;;;5084269;28;20035;-92
2024/01/07 12:08:43;;;;;;;5.53;2.50;;;1.20;99.90;;;;;;5098925;28;20028;-93
2024/01/07 12:11:11;;;;;;;4.50;2.05;;;1.10;99.90;;;;;;5098145;28;20114;-95
2024/01/07 12:13:37;;;;;;;3.33;2.13;;;1.10;99.90;;;;;;5083460;28;20031;-94
2024/01/07 12:16:04;;;;;;;5.60;2.53;;;1.10;99.90;;;;;;5096690;28;20114;-96
2024/01/07 12:18:30;;;;;;;3.63;2.10;;;1.10;99.90;;;;;;5096175;28;20020;-95
2024/01/07 12:21:00;;;;;;;4.18;2.05;;;1.20;99.90;;;;;;5091863;28;20012;-95
2024/01/07 12:23:26;;;;;;;3.22;1.65;;;1.30;99.90;;;;;;5092279;28;20475;-94
2024/01/07 12:26:06;;;;;;;5.22;1.42;;;1.30;99.90;;;;;;5092093;28;20436;-94
2024/01/07 12:28:32;;;;;;;3.90;1.10;;;1.20;99.90;;;;;;5080600;28;20024;-95
2024/01/07 12:30:58;;;;;;;3.38;0.93;;;1.20;99.90;;;;;;5087635;28;20073;-94
2024/01/07 12:33:25;;;;;;;2.75;1.20;;;1.10;99.90;;;;;;5085461;28;20149;-94
2024/01/07 12:35:51;;;;;;;3.13;0.90;;;1.10;99.90;;;;;;5095568;28;20019;-95
2024/01/07 12:38:26;;;;;;;3.03;1.00;;;1.10;99.90;;;;;;5097612;28;20032;-96